createdAt,value
2022-09-04T00:00:01.835Z,17.03
2022-09-04T00:05:23.088Z,16.82
2022-09-04T00:10:53.963Z,16.71
2022-09-04T00:16:10.722Z,16.96
2022-09-04T00:21:26.545Z,17.09
2022-09-04T00:26:40.201Z,17.12
2022-09-04T00:31:54.541Z,17.26
2022-09-04T00:37:04.771Z,17.27
2022-09-04T00:42:43.846Z,17.07
2022-09-04T00:48:32.194Z,17.14
2022-09-04T00:53:53.198Z,17.01
2022-09-04T00:59:26.783Z,16.77
2022-09-04T01:04:48.888Z,16.67
2022-09-04T01:10:40.574Z,16.75
2022-09-04T01:16:01.884Z,16.65
2022-09-04T01:21:17.315Z,16.79
2022-09-04T01:26:48.057Z,16.72
2022-09-04T01:31:57.832Z,16.77
2022-09-04T01:37:25.464Z,16.92
2022-09-04T01:42:44.542Z,16.47
2022-09-04T01:47:55.525Z,16.42
2022-09-04T01:53:12.029Z,16.40
2022-09-04T01:58:43.705Z,16.57
2022-09-04T02:04:18.459Z,16.75
2022-09-04T02:09:38.330Z,16.79
2022-09-04T02:15:31.144Z,16.74
2022-09-04T02:20:34.288Z,16.67
2022-09-04T02:25:50.295Z,16.71
2022-09-04T02:31:12.898Z,16.61
2022-09-04T02:36:39.935Z,16.44
2022-09-04T02:41:58.494Z,16.37
2022-09-04T02:47:20.574Z,16.52
2022-09-04T02:52:59.830Z,16.55
2022-09-04T02:58:29.465Z,16.51
2022-09-04T03:03:44.981Z,16.39
2022-09-04T03:08:53.770Z,16.51
2022-09-04T03:14:05.465Z,16.73
2022-09-04T03:19:25.612Z,16.80
2022-09-04T03:24:45.744Z,16.63
2022-09-04T03:30:10.917Z,16.67
2022-09-04T03:35:26.132Z,16.72
2022-09-04T03:40:50.441Z,16.70
2022-09-04T03:46:14.046Z,16.77
2022-09-04T03:51:26.089Z,16.59
2022-09-04T03:56:50.145Z,16.37
2022-09-04T04:02:01.537Z,16.44
2022-09-04T04:07:28.469Z,16.34
2022-09-04T04:12:53.580Z,16.31
2022-09-04T04:18:27.838Z,16.42
2022-09-04T04:23:41.384Z,16.51
2022-09-04T04:29:09.183Z,16.72
2022-09-04T04:34:22.465Z,16.64
2022-09-04T04:40:10.519Z,16.86
2022-09-04T04:45:40.423Z,16.83
2022-09-04T04:51:00.885Z,16.91
2022-09-04T04:56:33.396Z,16.74
2022-09-04T05:01:56.603Z,16.81
2022-09-04T05:07:06.703Z,16.74
2022-09-04T05:12:31.247Z,17.20
2022-09-04T05:17:48.112Z,17.44
2022-09-04T05:23:16.811Z,17.47
2022-09-04T05:28:40.568Z,17.98
2022-09-04T05:33:57.311Z,18.26
2022-09-04T05:39:11.941Z,18.14
2022-09-04T05:44:38.235Z,18.16
2022-09-04T05:50:06.826Z,18.38
2022-09-04T05:55:21.568Z,18.48
2022-09-04T06:00:24.211Z,18.31
2022-09-04T06:05:45.553Z,18.51
2022-09-04T06:11:29.069Z,18.34
2022-09-04T06:17:00.877Z,18.35
2022-09-04T06:22:35.028Z,18.51
2022-09-04T06:28:07.490Z,18.78
2022-09-04T06:33:22.155Z,18.60
2022-09-04T06:38:42.951Z,18.75
2022-09-04T06:44:29.129Z,18.96
2022-09-04T06:49:49.687Z,19.27
2022-09-04T06:55:28.975Z,19.36
2022-09-04T07:00:45.239Z,19.58
2022-09-04T07:06:05.335Z,19.86
2022-09-04T07:11:36.659Z,20.04
2022-09-04T07:16:51.697Z,20.33
2022-09-04T07:22:04.207Z,20.59
2022-09-04T07:27:20.089Z,20.27
2022-09-04T07:32:39.570Z,20.49
2022-09-04T07:38:00.124Z,20.97
2022-09-04T07:43:24.243Z,21.47
2022-09-04T07:48:32.551Z,22.22
2022-09-04T08:00:35.837Z,21.99
2022-09-04T08:06:11.941Z,21.96
2022-09-04T08:11:48.720Z,21.72
2022-09-04T08:17:33.480Z,21.79
2022-09-04T08:23:06.673Z,21.60
2022-09-04T08:28:25.467Z,21.31
2022-09-04T08:33:56.976Z,21.63
2022-09-04T08:39:02.266Z,21.39
2022-09-04T08:44:37.376Z,21.55
2022-09-04T08:49:58.569Z,21.15
2022-09-04T08:55:09.753Z,21.01
2022-09-04T09:00:22.577Z,20.57
2022-09-04T09:05:43.305Z,20.64
2022-09-04T09:10:54.737Z,20.91
2022-09-04T09:16:19.121Z,20.70
2022-09-04T09:21:58.918Z,20.98
2022-09-04T09:27:34.756Z,21.02
2022-09-04T09:33:30.923Z,20.93
2022-09-04T09:38:51.905Z,20.98
2022-09-04T09:44:01.135Z,20.80
2022-09-04T09:49:33.591Z,20.54
2022-09-04T09:54:55.649Z,20.73
2022-09-04T10:00:07.284Z,20.93
2022-09-04T10:05:49.941Z,21.57
2022-09-04T10:11:01.427Z,21.90
2022-09-04T10:16:35.477Z,21.94
2022-09-04T10:22:04.436Z,22.56
2022-09-04T10:27:31.382Z,22.99
2022-09-04T10:32:33.633Z,23.02
2022-09-04T10:38:00.848Z,23.23
2022-09-04T10:43:20.379Z,24.02
2022-09-04T10:48:51.679Z,23.92
2022-09-04T10:54:15.062Z,24.39
2022-09-04T11:00:05.724Z,25.22
2022-09-04T11:05:23.328Z,26.53
2022-09-04T11:11:07.039Z,24.77
2022-09-04T11:16:37.039Z,24.13
2022-09-04T11:22:20.135Z,23.90
2022-09-04T11:27:39.189Z,23.88
2022-09-04T11:33:18.893Z,24.44
2022-09-04T11:38:51.321Z,23.89
2022-09-04T11:44:15.326Z,23.46
2022-09-04T11:49:41.974Z,23.46
2022-09-04T11:55:02.458Z,23.85
2022-09-04T12:00:12.774Z,24.12
2022-09-04T12:05:40.431Z,24.07
2022-09-04T12:11:32.183Z,24.48
2022-09-04T12:16:54.510Z,23.84
2022-09-04T12:22:19.361Z,23.55
2022-09-04T12:27:59.390Z,23.16
2022-09-04T12:33:30.488Z,22.93
2022-09-04T12:38:54.614Z,23.04
2022-09-04T12:44:34.985Z,23.24
2022-09-04T12:49:59.092Z,23.56
2022-09-04T12:55:09.297Z,24.03
2022-09-04T13:00:15.470Z,24.28
2022-09-04T13:05:41.859Z,24.30
2022-09-04T13:11:19.244Z,23.36
2022-09-04T13:16:27.737Z,23.24
2022-09-04T13:21:52.016Z,23.24
2022-09-04T13:27:03.926Z,23.41
2022-09-04T13:32:20.824Z,23.08
2022-09-04T13:37:34.396Z,22.79
2022-09-04T13:42:55.414Z,22.30
2022-09-04T13:48:17.262Z,22.49
2022-09-04T13:53:52.001Z,22.35
2022-09-04T13:59:00.573Z,22.42
2022-09-04T14:04:11.607Z,22.48
2022-09-04T14:09:16.337Z,22.15
2022-09-04T14:14:31.071Z,22.06
2022-09-04T14:19:57.591Z,22.08
2022-09-04T14:25:30.727Z,21.99
2022-09-04T14:30:55.976Z,21.51
2022-09-04T14:36:10.442Z,21.58
2022-09-04T14:41:35.845Z,21.41
2022-09-04T14:47:03.763Z,21.63
2022-09-04T14:52:19.930Z,21.46
2022-09-04T14:57:38.116Z,21.37
2022-09-04T15:02:52.077Z,21.38
2022-09-04T15:08:01.585Z,21.35
2022-09-04T15:13:28.324Z,21.04
2022-09-04T15:18:55.580Z,20.78
2022-09-04T15:24:26.341Z,20.46
2022-09-04T15:29:54.254Z,20.70
2022-09-04T15:35:17.574Z,20.68
2022-09-04T15:40:32.217Z,20.79
2022-09-04T15:45:46.048Z,20.87
2022-09-04T15:51:05.085Z,20.56
2022-09-04T15:56:29.578Z,20.67
2022-09-04T16:01:48.770Z,20.38
2022-09-04T16:07:06.688Z,20.28
2022-09-04T16:12:28.149Z,20.14
2022-09-04T16:17:39.296Z,19.88
2022-09-04T16:22:54.702Z,19.78
2022-09-04T16:28:08.646Z,19.62
2022-09-04T16:33:27.755Z,19.42
2022-09-04T16:38:40.880Z,19.37
2022-09-04T16:44:17.052Z,19.24
2022-09-04T16:49:47.539Z,19.04
2022-09-04T16:55:14.641Z,18.69
2022-09-04T17:00:24.310Z,18.43
2022-09-04T17:06:03.193Z,18.39
2022-09-04T17:11:36.704Z,18.49
2022-09-04T17:17:30.169Z,18.38
2022-09-04T17:28:53.956Z,18.17
2022-09-04T17:29:18.798Z,18.00
2022-09-04T17:40:26.387Z,18.07
2022-09-04T17:41:31.138Z,17.99
2022-09-04T17:45:02.848Z,17.76
2022-09-04T17:50:14.164Z,17.71
2022-09-04T17:55:16.608Z,17.59
2022-09-04T18:00:24.265Z,17.41
2022-09-04T18:05:52.978Z,17.38
2022-09-04T18:11:25.706Z,17.31
2022-09-04T18:16:37.084Z,17.27
2022-09-04T18:21:50.233Z,17.65
2022-09-04T18:27:23.497Z,17.74
2022-09-04T18:37:12.870Z,18.06
2022-09-04T18:38:27.652Z,18.07
2022-09-04T18:50:40.966Z,18.11
2022-09-04T18:50:50.079Z,18.14
2022-09-04T18:54:42.309Z,17.96
2022-09-04T18:59:47.014Z,18.32
2022-09-04T19:05:11.739Z,18.31
2022-09-04T19:10:35.948Z,18.39
2022-09-04T19:15:50.339Z,18.12
2022-09-04T19:21:03.348Z,18.13
2022-09-04T19:26:35.131Z,18.16
2022-09-04T19:32:01.875Z,17.92
2022-09-04T19:41:07.879Z,18.03
2022-09-04T19:46:12.082Z,17.98
2022-09-04T19:48:39.981Z,18.28
2022-09-04T19:54:12.027Z,17.59
2022-09-04T19:59:29.525Z,17.16
2022-09-04T20:04:44.108Z,16.92
2022-09-04T20:09:56.869Z,16.86
2022-09-04T20:15:15.154Z,16.30
2022-09-04T20:20:25.198Z,16.88
2022-09-04T20:25:42.609Z,17.22
2022-09-04T20:31:01.349Z,17.47
2022-09-04T20:36:12.867Z,17.32
2022-09-04T20:41:35.483Z,16.83
2022-09-04T20:50:20.087Z,16.28
2022-09-04T20:52:50.938Z,16.35
2022-09-04T21:00:16.837Z,17.16
2022-09-04T21:03:43.212Z,17.31
2022-09-04T21:09:22.908Z,17.25
2022-09-04T21:14:45.042Z,16.73
2022-09-04T21:20:00.885Z,16.57
2022-09-04T21:25:36.679Z,16.35
2022-09-04T21:30:59.616Z,16.64
2022-09-04T21:36:27.003Z,16.98
2022-09-04T21:41:29.681Z,16.25
2022-09-04T21:47:16.859Z,16.20
2022-09-04T21:53:00.641Z,16.17
2022-09-04T22:02:30.373Z,15.80
2022-09-04T22:04:42.320Z,16.15
2022-09-04T22:13:33.047Z,15.89
2022-09-04T22:15:59.095Z,15.75
2022-09-04T22:21:10.455Z,15.79
2022-09-04T22:26:43.529Z,15.77
2022-09-04T22:32:03.180Z,15.18
2022-09-04T22:37:29.436Z,15.15
2022-09-04T22:42:56.302Z,15.00
2022-09-04T22:48:31.500Z,14.87
2022-09-04T22:53:52.483Z,14.91
2022-09-04T22:59:27.467Z,14.69
2022-09-04T23:04:32.923Z,14.69
2022-09-04T23:13:46.986Z,14.68
2022-09-04T23:15:36.090Z,14.77
2022-09-04T23:24:42.450Z,14.73
2022-09-04T23:27:01.651Z,14.11
2022-09-04T23:32:26.745Z,14.34
2022-09-04T23:37:38.478Z,14.31
2022-09-04T23:43:07.712Z,14.62
2022-09-04T23:48:35.071Z,14.82
2022-09-04T23:54:24.780Z,14.88
2022-09-04T23:59:35.985Z,14.95
